Silverton, CO

9:46 AM MDT on May 28, 2015 (GMT -0600)
Martin House / Silverton CO | | Change Station
CLOSE
Current Station
Personal Weather Station
Location: Silverton, CO
Elevation: 9354 ft
Nearby Weather Stations

Elev 9354 ft 37.82 °N, 107.66 °W | Updated 3 minutes ago

Partly Cloudy
Partly Cloudy
47.8 °F
Feels Like 48 °F
N
2.7
Wind Variable Wind from SW

Today
High -- | Low -- °F
--% Chance of Precip.
Yesterday
High -- | Low -- °F
Precip. -- in
5:52 AM 8:24 PM
Waxing Gibbous, 76% visible
Pressure 30.31 in
Visibility 10.0 miles
Clouds Scattered Clouds 6000 ft
Overcast 8000 ft
Windchill 48 °F
Dew Point 36 °F
Humidity 64%
Rainfall 0.00 in
Snow Depth Not available.
UV 2 out of 12
Pollen 5.90 out of 12
Air Quality Not available.
Flu Activity Sporadic
METAR KTEX 281535Z AUTO 25003KT 10SM SCT060 OVC080 10/02 A3031 RMK AO2 T01010018

More Conditions Fewer Conditions

Pressure 30.31 in
Visibility 10.0 miles
Clouds Scattered Clouds 6000 ft
Overcast 8000 ft
Windchill 48 °F
Dew Point 36 °F
Humidity 64%
Rainfall 0.00 in
Snow Depth Not available.
UV 2 out of 12
Pollen 5.90 out of 12
Air Quality Not available.
Flu Activity Sporadic
METAR KTEX 281535Z AUTO 25003KT 10SM SCT060 OVC080 10/02 A3031 RMK AO2 T01010018

More Conditions Fewer Conditions

10-Day Weather Forecast

Almanac

Astronomy

May. 28, 2015 Rise Set
Actual Time
Civil Twilight
Nautical Twilight
Astronomical Twilight
Moon
Length of Visible Light
Length of Day
Tomorrow will be .
, % of the Moon is Illuminated

Today's Extremes

State Highs State Lows

Community

WunderPhotos

Upload Photos

1,824,999 photos uploaded!

WunderBlogs® & News

Nearby

Air Quality

  Air Quality AQ Index Pollutant
Not available.

Snow Depth

Station Depth Elevation

Earthquake Activity

City Distance Mag. Time & Date
Minimum magnitude displayed is 2.5.

Coastal Water Temperatures

Place Temperature

Stations

Nearby Weather Stations

Station Location Temp. Windchill Dew Point Humidity Wind Precip. Elev Updated Type